Weather at Bujumbura Melchior Ndadaye International Airport

Public forecast

Using degrees Celsius for public forecast. Weather courtesy of forecast.io.

Current aviation weather report (METAR) for Bujumbura Melchior Ndadaye International Airport

Report is more than 6 hours old.

2022/11/14 14:00 (retrieved 2 years ago)

HBBA 141400Z 18032KT 9999 FEW025FEW030CB SCT10029/20 Q1010 NOSIG

Aviation forecast (TAF) for Bujumbura Melchior Ndadaye International Airport

Forecast is more than 12 hours old.

2023/02/22 18:00 (retrieved 1 year ago)

TAF HBBA 221700Z 2218/2224 36003KT 9999 FEW030 BECMG 2219/2221 00000K T BECMG 2307/2309 18010KT FEW027 BKN10 TEMPO 2311/2317 VRB08KT TSRA OR SHRA FEW025 FEW030CB BKN100 BECMG 2319/2321 36004KT 9999 FEW025